sensor_id;sensor_type;location;lat;lon;timestamp;P1;durP1;ratioP1;P2;durP2;ratioP2
69280;SDS011;56392;51.082;17.080;2023-05-19T00:05:03;9.30;;;2.90;;
69280;SDS011;56392;51.082;17.080;2023-05-19T00:10:28;7.53;;;2.90;;
69280;SDS011;56392;51.082;17.080;2023-05-19T00:15:53;7.65;;;2.83;;
69280;SDS011;56392;51.082;17.080;2023-05-19T00:21:16;10.55;;;2.90;;
69280;SDS011;56392;51.082;17.080;2023-05-19T00:26:41;10.00;;;2.97;;
69280;SDS011;56392;51.082;17.080;2023-05-19T00:32:04;9.43;;;2.97;;
69280;SDS011;56392;51.082;17.080;2023-05-19T00:37:27;9.05;;;2.75;;
69280;SDS011;56392;51.082;17.080;2023-05-19T00:42:51;8.77;;;3.30;;
69280;SDS011;56392;51.082;17.080;2023-05-19T00:48:15;9.15;;;2.90;;
69280;SDS011;56392;51.082;17.080;2023-05-19T00:53:38;7.78;;;2.83;;
69280;SDS011;56392;51.082;17.080;2023-05-19T00:59:02;10.30;;;3.30;;
69280;SDS011;56392;51.082;17.080;2023-05-19T01:04:26;9.13;;;3.17;;
69280;SDS011;56392;51.082;17.080;2023-05-19T01:09:50;11.55;;;2.97;;
69280;SDS011;56392;51.082;17.080;2023-05-19T01:15:14;9.70;;;3.20;;
69280;SDS011;56392;51.082;17.080;2023-05-19T01:20:38;8.90;;;3.70;;
69280;SDS011;56392;51.082;17.080;2023-05-19T01:26:11;9.32;;;3.63;;
69280;SDS011;56392;51.082;17.080;2023-05-19T01:31:50;9.60;;;3.50;;
69280;SDS011;56392;51.082;17.080;2023-05-19T01:37:15;10.97;;;3.83;;
69280;SDS011;56392;51.082;17.080;2023-05-19T01:42:39;9.02;;;3.50;;
69280;SDS011;56392;51.082;17.080;2023-05-19T01:48:04;9.98;;;3.58;;
69280;SDS011;56392;51.082;17.080;2023-05-19T01:53:28;8.43;;;3.60;;
69280;SDS011;56392;51.082;17.080;2023-05-19T01:58:52;10.50;;;3.70;;
69280;SDS011;56392;51.082;17.080;2023-05-19T02:04:24;10.57;;;4.10;;
69280;SDS011;56392;51.082;17.080;2023-05-19T02:10:02;9.40;;;3.58;;
69280;SDS011;56392;51.082;17.080;2023-05-19T02:15:29;11.00;;;3.47;;
69280;SDS011;56392;51.082;17.080;2023-05-19T02:21:00;9.30;;;3.60;;
69280;SDS011;56392;51.082;17.080;2023-05-19T02:26:23;9.43;;;3.47;;
69280;SDS011;56392;51.082;17.080;2023-05-19T02:31:46;9.70;;;3.70;;
69280;SDS011;56392;51.082;17.080;2023-05-19T02:37:11;10.15;;;3.63;;
69280;SDS011;56392;51.082;17.080;2023-05-19T02:42:34;8.50;;;3.45;;
69280;SDS011;56392;51.082;17.080;2023-05-19T02:47:58;8.07;;;3.10;;
69280;SDS011;56392;51.082;17.080;2023-05-19T02:53:22;8.43;;;3.20;;
69280;SDS011;56392;51.082;17.080;2023-05-19T02:58:45;10.48;;;3.38;;
69280;SDS011;56392;51.082;17.080;2023-05-19T03:04:08;11.70;;;3.55;;
69280;SDS011;56392;51.082;17.080;2023-05-19T03:09:32;9.27;;;3.23;;
69280;SDS011;56392;51.082;17.080;2023-05-19T03:14:56;8.23;;;3.13;;
69280;SDS011;56392;51.082;17.080;2023-05-19T03:20:19;9.48;;;3.35;;
69280;SDS011;56392;51.082;17.080;2023-05-19T03:25:43;10.17;;;3.50;;
69280;SDS011;56392;51.082;17.080;2023-05-19T03:31:06;8.30;;;3.63;;
69280;SDS011;56392;51.082;17.080;2023-05-19T03:36:29;9.73;;;3.67;;
69280;SDS011;56392;51.082;17.080;2023-05-19T03:41:54;10.00;;;3.50;;
69280;SDS011;56392;51.082;17.080;2023-05-19T03:47:17;9.70;;;3.73;;
69280;SDS011;56392;51.082;17.080;2023-05-19T03:52:40;10.40;;;3.88;;
69280;SDS011;56392;51.082;17.080;2023-05-19T03:58:07;9.38;;;3.85;;
69280;SDS011;56392;51.082;17.080;2023-05-19T04:03:30;9.10;;;3.40;;
69280;SDS011;56392;51.082;17.080;2023-05-19T04:08:53;10.68;;;3.95;;
69280;SDS011;56392;51.082;17.080;2023-05-19T04:14:18;10.10;;;4.05;;
69280;SDS011;56392;51.082;17.080;2023-05-19T04:19:41;9.27;;;4.20;;
69280;SDS011;56392;51.082;17.080;2023-05-19T04:25:04;9.77;;;4.43;;
69280;SDS011;56392;51.082;17.080;2023-05-19T04:30:30;11.48;;;4.63;;
69280;SDS011;56392;51.082;17.080;2023-05-19T04:35:54;9.63;;;4.60;;
69280;SDS011;56392;51.082;17.080;2023-05-19T04:41:18;13.23;;;4.60;;
69280;SDS011;56392;51.082;17.080;2023-05-19T04:46:43;12.18;;;4.15;;
69280;SDS011;56392;51.082;17.080;2023-05-19T04:52:07;9.45;;;4.28;;
69280;SDS011;56392;51.082;17.080;2023-05-19T04:57:32;11.10;;;3.63;;
69280;SDS011;56392;51.082;17.080;2023-05-19T05:02:57;10.38;;;4.05;;
69280;SDS011;56392;51.082;17.080;2023-05-19T05:08:20;9.25;;;3.42;;
69280;SDS011;56392;51.082;17.080;2023-05-19T05:13:44;12.37;;;3.30;;
69280;SDS011;56392;51.082;17.080;2023-05-19T05:19:09;8.77;;;3.20;;
69280;SDS011;56392;51.082;17.080;2023-05-19T05:24:33;10.05;;;3.63;;
69280;SDS011;56392;51.082;17.080;2023-05-19T05:29:56;7.97;;;2.83;;
69280;SDS011;56392;51.082;17.080;2023-05-19T05:35:21;8.53;;;3.00;;
69280;SDS011;56392;51.082;17.080;2023-05-19T05:40:45;8.88;;;3.10;;
69280;SDS011;56392;51.082;17.080;2023-05-19T05:46:08;9.43;;;3.30;;
69280;SDS011;56392;51.082;17.080;2023-05-19T05:51:33;10.90;;;3.67;;
69280;SDS011;56392;51.082;17.080;2023-05-19T05:56:57;9.10;;;3.50;;
69280;SDS011;56392;51.082;17.080;2023-05-19T06:02:20;12.55;;;3.40;;
69280;SDS011;56392;51.082;17.080;2023-05-19T06:07:44;8.17;;;3.10;;
69280;SDS011;56392;51.082;17.080;2023-05-19T06:13:07;9.07;;;3.28;;
69280;SDS011;56392;51.082;17.080;2023-05-19T06:18:30;9.93;;;3.28;;
69280;SDS011;56392;51.082;17.080;2023-05-19T06:23:55;11.53;;;3.40;;
69280;SDS011;56392;51.082;17.080;2023-05-19T06:29:18;8.80;;;3.30;;
69280;SDS011;56392;51.082;17.080;2023-05-19T06:34:41;10.05;;;3.60;;
69280;SDS011;56392;51.082;17.080;2023-05-19T06:40:06;10.20;;;3.65;;
69280;SDS011;56392;51.082;17.080;2023-05-19T06:45:30;7.83;;;3.63;;
69280;SDS011;56392;51.082;17.080;2023-05-19T06:50:53;9.73;;;3.72;;
69280;SDS011;56392;51.082;17.080;2023-05-19T06:56:18;10.30;;;4.00;;
69280;SDS011;56392;51.082;17.080;2023-05-19T07:01:43;9.17;;;3.53;;
69280;SDS011;56392;51.082;17.080;2023-05-19T07:07:06;10.68;;;3.85;;
69280;SDS011;56392;51.082;17.080;2023-05-19T07:12:30;12.02;;;3.60;;
69280;SDS011;56392;51.082;17.080;2023-05-19T07:17:53;7.93;;;3.23;;
69280;SDS011;56392;51.082;17.080;2023-05-19T07:23:16;8.37;;;3.30;;
69280;SDS011;56392;51.082;17.080;2023-05-19T07:28:40;8.68;;;3.20;;
69280;SDS011;56392;51.082;17.080;2023-05-19T07:34:03;9.55;;;3.20;;
69280;SDS011;56392;51.082;17.080;2023-05-19T07:39:27;9.57;;;3.00;;
69280;SDS011;56392;51.082;17.080;2023-05-19T07:44:51;9.20;;;3.13;;
69280;SDS011;56392;51.082;17.080;2023-05-19T07:50:14;6.70;;;2.63;;
69280;SDS011;56392;51.082;17.080;2023-05-19T07:55:37;6.93;;;2.57;;
69280;SDS011;56392;51.082;17.080;2023-05-19T08:01:02;10.68;;;2.90;;
69280;SDS011;56392;51.082;17.080;2023-05-19T08:06:25;9.95;;;2.30;;
69280;SDS011;56392;51.082;17.080;2023-05-19T08:11:48;10.47;;;2.50;;
69280;SDS011;56392;51.082;17.080;2023-05-19T08:17:13;8.03;;;2.40;;
69280;SDS011;56392;51.082;17.080;2023-05-19T08:22:36;8.48;;;2.38;;
69280;SDS011;56392;51.082;17.080;2023-05-19T08:27:59;7.00;;;2.50;;
69280;SDS011;56392;51.082;17.080;2023-05-19T08:33:24;7.00;;;2.23;;
69280;SDS011;56392;51.082;17.080;2023-05-19T08:38:47;7.13;;;2.55;;
69280;SDS011;56392;51.082;17.080;2023-05-19T08:44:10;6.47;;;2.20;;
69280;SDS011;56392;51.082;17.080;2023-05-19T08:49:35;8.37;;;2.70;;
69280;SDS011;56392;51.082;17.080;2023-05-19T08:55:07;7.35;;;2.60;;
69280;SDS011;56392;51.082;17.080;2023-05-19T09:00:34;8.68;;;3.10;;
69280;SDS011;56392;51.082;17.080;2023-05-19T09:05:59;10.80;;;3.33;;
69280;SDS011;56392;51.082;17.080;2023-05-19T09:11:22;7.30;;;2.63;;
69280;SDS011;56392;51.082;17.080;2023-05-19T09:16:46;7.95;;;2.50;;
69280;SDS011;56392;51.082;17.080;2023-05-19T09:22:15;9.20;;;2.55;;
69280;SDS011;56392;51.082;17.080;2023-05-19T09:27:39;9.77;;;2.90;;
69280;SDS011;56392;51.082;17.080;2023-05-19T09:33:02;9.88;;;2.90;;
69280;SDS011;56392;51.082;17.080;2023-05-19T09:38:31;7.22;;;3.00;;
69280;SDS011;56392;51.082;17.080;2023-05-19T09:43:54;9.30;;;3.47;;
69280;SDS011;56392;51.082;17.080;2023-05-19T09:49:18;9.50;;;3.33;;
69280;SDS011;56392;51.082;17.080;2023-05-19T09:54:44;8.88;;;3.20;;
69280;SDS011;56392;51.082;17.080;2023-05-19T10:00:09;9.30;;;3.43;;
69280;SDS011;56392;51.082;17.080;2023-05-19T10:05:34;9.83;;;3.83;;
69280;SDS011;56392;51.082;17.080;2023-05-19T10:10:59;10.60;;;4.20;;
69280;SDS011;56392;51.082;17.080;2023-05-19T10:16:23;11.95;;;3.90;;
69280;SDS011;56392;51.082;17.080;2023-05-19T10:21:49;9.20;;;3.70;;
69280;SDS011;56392;51.082;17.080;2023-05-19T10:27:14;10.98;;;3.95;;
69280;SDS011;56392;51.082;17.080;2023-05-19T10:32:38;11.18;;;4.05;;
69280;SDS011;56392;51.082;17.080;2023-05-19T10:38:06;11.53;;;4.23;;
69280;SDS011;56392;51.082;17.080;2023-05-19T10:43:45;9.73;;;4.10;;
69280;SDS011;56392;51.082;17.080;2023-05-19T10:49:18;10.05;;;4.10;;
69280;SDS011;56392;51.082;17.080;2023-05-19T10:54:43;12.50;;;4.60;;
69280;SDS011;56392;51.082;17.080;2023-05-19T11:00:26;11.23;;;4.00;;
69280;SDS011;56392;51.082;17.080;2023-05-19T11:05:51;10.40;;;3.47;;
69280;SDS011;56392;51.082;17.080;2023-05-19T11:11:14;10.73;;;3.50;;
69280;SDS011;56392;51.082;17.080;2023-05-19T11:16:39;9.93;;;3.60;;
69280;SDS011;56392;51.082;17.080;2023-05-19T11:22:06;9.98;;;3.72;;
69280;SDS011;56392;51.082;17.080;2023-05-19T11:27:31;9.82;;;3.72;;
69280;SDS011;56392;51.082;17.080;2023-05-19T11:32:56;10.57;;;3.77;;
69280;SDS011;56392;51.082;17.080;2023-05-19T11:38:19;10.32;;;3.95;;
69280;SDS011;56392;51.082;17.080;2023-05-19T11:43:43;9.75;;;4.55;;
69280;SDS011;56392;51.082;17.080;2023-05-19T11:49:10;12.23;;;4.73;;
69280;SDS011;56392;51.082;17.080;2023-05-19T11:54:33;8.80;;;4.47;;
69280;SDS011;56392;51.082;17.080;2023-05-19T12:00:00;9.18;;;4.75;;
69280;SDS011;56392;51.082;17.080;2023-05-19T12:05:27;10.27;;;4.80;;
69280;SDS011;56392;51.082;17.080;2023-05-19T12:10:50;10.87;;;5.13;;
69280;SDS011;56392;51.082;17.080;2023-05-19T12:16:14;10.38;;;5.28;;
69280;SDS011;56392;51.082;17.080;2023-05-19T12:21:38;11.50;;;5.30;;
69280;SDS011;56392;51.082;17.080;2023-05-19T12:27:04;12.10;;;6.33;;
69280;SDS011;56392;51.082;17.080;2023-05-19T12:32:29;10.75;;;6.00;;
69280;SDS011;56392;51.082;17.080;2023-05-19T12:37:56;15.65;;;7.00;;
69280;SDS011;56392;51.082;17.080;2023-05-19T12:43:24;13.33;;;7.00;;
69280;SDS011;56392;51.082;17.080;2023-05-19T12:48:48;15.60;;;8.40;;
69280;SDS011;56392;51.082;17.080;2023-05-19T12:54:13;15.02;;;8.77;;
69280;SDS011;56392;51.082;17.080;2023-05-19T12:59:41;16.83;;;9.75;;
69280;SDS011;56392;51.082;17.080;2023-05-19T13:05:04;15.87;;;9.10;;
69280;SDS011;56392;51.082;17.080;2023-05-19T13:10:29;16.98;;;9.60;;
69280;SDS011;56392;51.082;17.080;2023-05-19T13:15:53;16.85;;;9.85;;
69280;SDS011;56392;51.082;17.080;2023-05-19T13:21:16;16.63;;;9.17;;
69280;SDS011;56392;51.082;17.080;2023-05-19T13:26:41;15.00;;;8.88;;
69280;SDS011;56392;51.082;17.080;2023-05-19T13:32:04;14.77;;;9.00;;
69280;SDS011;56392;51.082;17.080;2023-05-19T13:37:28;16.83;;;8.70;;
69280;SDS011;56392;51.082;17.080;2023-05-19T13:42:53;18.50;;;9.23;;
69280;SDS011;56392;51.082;17.080;2023-05-19T13:48:16;17.60;;;10.10;;
69280;SDS011;56392;51.082;17.080;2023-05-19T13:53:39;18.40;;;9.60;;
69280;SDS011;56392;51.082;17.080;2023-05-19T13:59:04;17.77;;;9.87;;
69280;SDS011;56392;51.082;17.080;2023-05-19T14:04:27;17.17;;;10.25;;
69280;SDS011;56392;51.082;17.080;2023-05-19T14:09:50;21.45;;;10.50;;
69280;SDS011;56392;51.082;17.080;2023-05-19T14:15:15;18.07;;;10.47;;
69280;SDS011;56392;51.082;17.080;2023-05-19T14:20:40;20.48;;;11.10;;
69280;SDS011;56392;51.082;17.080;2023-05-19T14:26:04;19.13;;;11.07;;
69280;SDS011;56392;51.082;17.080;2023-05-19T14:31:28;17.80;;;11.07;;
69280;SDS011;56392;51.082;17.080;2023-05-19T14:36:53;16.97;;;10.33;;
69280;SDS011;56392;51.082;17.080;2023-05-19T14:42:17;19.90;;;10.88;;
69280;SDS011;56392;51.082;17.080;2023-05-19T14:47:41;22.15;;;11.38;;
69280;SDS011;56392;51.082;17.080;2023-05-19T14:53:04;20.67;;;11.30;;
69280;SDS011;56392;51.082;17.080;2023-05-19T14:58:27;22.75;;;10.90;;
69280;SDS011;56392;51.082;17.080;2023-05-19T15:03:52;21.92;;;11.68;;
69280;SDS011;56392;51.082;17.080;2023-05-19T15:09:15;21.03;;;11.27;;
69280;SDS011;56392;51.082;17.080;2023-05-19T15:14:38;23.08;;;12.27;;
69280;SDS011;56392;51.082;17.080;2023-05-19T15:20:04;20.33;;;11.82;;
69280;SDS011;56392;51.082;17.080;2023-05-19T15:25:28;22.70;;;11.50;;
69280;SDS011;56392;51.082;17.080;2023-05-19T15:30:51;20.03;;;11.23;;
69280;SDS011;56392;51.082;17.080;2023-05-19T15:36:16;20.55;;;11.60;;
69280;SDS011;56392;51.082;17.080;2023-05-19T15:41:39;22.58;;;12.55;;
69280;SDS011;56392;51.082;17.080;2023-05-19T15:47:02;21.90;;;12.60;;
69280;SDS011;56392;51.082;17.080;2023-05-19T15:52:27;21.25;;;12.68;;
69280;SDS011;56392;51.082;17.080;2023-05-19T15:57:50;20.02;;;11.20;;
69280;SDS011;56392;51.082;17.080;2023-05-19T16:03:13;19.73;;;11.37;;
69280;SDS011;56392;51.082;17.080;2023-05-19T16:08:37;21.95;;;11.00;;
69280;SDS011;56392;51.082;17.080;2023-05-19T16:14:01;19.52;;;10.70;;
69280;SDS011;56392;51.082;17.080;2023-05-19T16:19:24;17.80;;;10.67;;
69280;SDS011;56392;51.082;17.080;2023-05-19T16:24:48;19.90;;;10.57;;
69280;SDS011;56392;51.082;17.080;2023-05-19T16:30:11;17.70;;;9.70;;
69280;SDS011;56392;51.082;17.080;2023-05-19T16:35:35;17.70;;;10.15;;
69280;SDS011;56392;51.082;17.080;2023-05-19T16:40:59;16.10;;;9.60;;
69280;SDS011;56392;51.082;17.080;2023-05-19T16:46:24;18.20;;;10.15;;
69280;SDS011;56392;51.082;17.080;2023-05-19T16:51:47;17.83;;;10.45;;
69280;SDS011;56392;51.082;17.080;2023-05-19T16:57:14;17.20;;;9.80;;
69280;SDS011;56392;51.082;17.080;2023-05-19T17:02:37;19.52;;;10.50;;
69280;SDS011;56392;51.082;17.080;2023-05-19T17:08:00;16.92;;;9.90;;
69280;SDS011;56392;51.082;17.080;2023-05-19T17:13:24;18.60;;;9.97;;
69280;SDS011;56392;51.082;17.080;2023-05-19T17:18:49;18.23;;;10.60;;
69280;SDS011;56392;51.082;17.080;2023-05-19T17:24:12;17.98;;;10.32;;
69280;SDS011;56392;51.082;17.080;2023-05-19T17:29:36;16.15;;;9.45;;
69280;SDS011;56392;51.082;17.080;2023-05-19T17:34:59;16.03;;;9.53;;
69280;SDS011;56392;51.082;17.080;2023-05-19T17:40:23;19.83;;;9.85;;
69280;SDS011;56392;51.082;17.080;2023-05-19T17:45:48;17.40;;;10.25;;
69280;SDS011;56392;51.082;17.080;2023-05-19T17:51:11;17.80;;;10.33;;
69280;SDS011;56392;51.082;17.080;2023-05-19T17:56:34;17.95;;;10.63;;
69280;SDS011;56392;51.082;17.080;2023-05-19T18:02:04;18.45;;;10.10;;
69280;SDS011;56392;51.082;17.080;2023-05-19T18:07:28;20.83;;;11.20;;
69280;SDS011;56392;51.082;17.080;2023-05-19T18:12:54;19.63;;;10.70;;
69280;SDS011;56392;51.082;17.080;2023-05-19T18:18:18;17.75;;;10.77;;
69280;SDS011;56392;51.082;17.080;2023-05-19T18:23:41;18.83;;;11.27;;
69280;SDS011;56392;51.082;17.080;2023-05-19T18:29:04;19.70;;;10.93;;
69280;SDS011;56392;51.082;17.080;2023-05-19T18:34:29;20.67;;;11.05;;
69280;SDS011;56392;51.082;17.080;2023-05-19T18:39:52;19.40;;;11.02;;
69280;SDS011;56392;51.082;17.080;2023-05-19T18:45:16;20.17;;;11.30;;
69280;SDS011;56392;51.082;17.080;2023-05-19T18:50:44;17.73;;;10.95;;
69280;SDS011;56392;51.082;17.080;2023-05-19T18:56:09;21.15;;;10.68;;
69280;SDS011;56392;51.082;17.080;2023-05-19T19:01:32;19.23;;;11.37;;
69280;SDS011;56392;51.082;17.080;2023-05-19T19:06:57;19.13;;;10.90;;
69280;SDS011;56392;51.082;17.080;2023-05-19T19:12:21;20.08;;;11.30;;
69280;SDS011;56392;51.082;17.080;2023-05-19T19:17:45;22.65;;;12.43;;
69280;SDS011;56392;51.082;17.080;2023-05-19T19:23:10;21.73;;;12.10;;
69280;SDS011;56392;51.082;17.080;2023-05-19T19:28:34;21.45;;;12.32;;
69280;SDS011;56392;51.082;17.080;2023-05-19T19:33:57;19.35;;;11.80;;
69280;SDS011;56392;51.082;17.080;2023-05-19T19:39:25;19.00;;;11.23;;
69280;SDS011;56392;51.082;17.080;2023-05-19T19:44:53;18.05;;;11.20;;
69280;SDS011;56392;51.082;17.080;2023-05-19T19:50:16;19.00;;;11.20;;
69280;SDS011;56392;51.082;17.080;2023-05-19T19:55:41;21.47;;;12.17;;
69280;SDS011;56392;51.082;17.080;2023-05-19T20:01:04;19.70;;;12.27;;
69280;SDS011;56392;51.082;17.080;2023-05-19T20:06:28;20.73;;;12.43;;
69280;SDS011;56392;51.082;17.080;2023-05-19T20:11:53;21.30;;;11.82;;
69280;SDS011;56392;51.082;17.080;2023-05-19T20:17:16;21.97;;;12.87;;
69280;SDS011;56392;51.082;17.080;2023-05-19T20:22:40;21.02;;;12.98;;
69280;SDS011;56392;51.082;17.080;2023-05-19T20:28:06;21.05;;;13.07;;
69280;SDS011;56392;51.082;17.080;2023-05-19T20:33:29;20.23;;;12.70;;
69280;SDS011;56392;51.082;17.080;2023-05-19T20:38:52;20.85;;;12.75;;
69280;SDS011;56392;51.082;17.080;2023-05-19T20:44:17;22.38;;;13.48;;
69280;SDS011;56392;51.082;17.080;2023-05-19T20:49:40;19.80;;;12.97;;
69280;SDS011;56392;51.082;17.080;2023-05-19T20:55:03;24.30;;;13.17;;
69280;SDS011;56392;51.082;17.080;2023-05-19T21:00:27;22.60;;;13.73;;
69280;SDS011;56392;51.082;17.080;2023-05-19T21:05:50;22.35;;;13.55;;
69280;SDS011;56392;51.082;17.080;2023-05-19T21:11:13;22.97;;;13.60;;
69280;SDS011;56392;51.082;17.080;2023-05-19T21:16:38;19.55;;;13.65;;
69280;SDS011;56392;51.082;17.080;2023-05-19T21:22:03;22.67;;;13.75;;
69280;SDS011;56392;51.082;17.080;2023-05-19T21:27:26;23.97;;;13.50;;
69280;SDS011;56392;51.082;17.080;2023-05-19T21:32:51;22.23;;;13.25;;
69280;SDS011;56392;51.082;17.080;2023-05-19T21:38:14;23.13;;;14.18;;
69280;SDS011;56392;51.082;17.080;2023-05-19T21:43:37;23.73;;;15.07;;
69280;SDS011;56392;51.082;17.080;2023-05-19T21:49:02;22.83;;;13.50;;
69280;SDS011;56392;51.082;17.080;2023-05-19T21:54:25;23.35;;;14.60;;
69280;SDS011;56392;51.082;17.080;2023-05-19T21:59:49;26.30;;;14.63;;
69280;SDS011;56392;51.082;17.080;2023-05-19T22:05:13;25.93;;;14.97;;
69280;SDS011;56392;51.082;17.080;2023-05-19T22:10:36;25.38;;;14.65;;
69280;SDS011;56392;51.082;17.080;2023-05-19T22:15:59;26.50;;;15.95;;
69280;SDS011;56392;51.082;17.080;2023-05-19T22:21:26;25.40;;;14.73;;
69280;SDS011;56392;51.082;17.080;2023-05-19T22:26:49;25.75;;;15.55;;
69280;SDS011;56392;51.082;17.080;2023-05-19T22:32:12;27.10;;;15.95;;
69280;SDS011;56392;51.082;17.080;2023-05-19T22:37:39;28.03;;;15.87;;
69280;SDS011;56392;51.082;17.080;2023-05-19T22:43:02;27.37;;;15.57;;
69280;SDS011;56392;51.082;17.080;2023-05-19T22:48:25;24.92;;;15.45;;
69280;SDS011;56392;51.082;17.080;2023-05-19T22:53:50;25.60;;;14.90;;
69280;SDS011;56392;51.082;17.080;2023-05-19T22:59:13;24.80;;;14.53;;
69280;SDS011;56392;51.082;17.080;2023-05-19T23:04:37;25.73;;;15.15;;
69280;SDS011;56392;51.082;17.080;2023-05-19T23:10:02;24.92;;;14.40;;
69280;SDS011;56392;51.082;17.080;2023-05-19T23:15:26;25.47;;;14.17;;
69280;SDS011;56392;51.082;17.080;2023-05-19T23:20:49;26.10;;;13.75;;
69280;SDS011;56392;51.082;17.080;2023-05-19T23:26:14;25.25;;;13.63;;
69280;SDS011;56392;51.082;17.080;2023-05-19T23:31:37;24.53;;;13.83;;
69280;SDS011;56392;51.082;17.080;2023-05-19T23:37:00;23.43;;;14.53;;
69280;SDS011;56392;51.082;17.080;2023-05-19T23:42:24;24.10;;;14.15;;
69280;SDS011;56392;51.082;17.080;2023-05-19T23:47:47;23.33;;;13.55;;
69280;SDS011;56392;51.082;17.080;2023-05-19T23:53:10;22.67;;;13.50;;
69280;SDS011;56392;51.082;17.080;2023-05-19T23:58:34;23.23;;;13.68;;
